sensor_id;sensor_type;location;lat;lon;timestamp;P1;durP1;ratioP1;P2;durP2;ratioP2
74269;SDS011;62754;48.252;11.654;2023-07-16T00:01:11;7.47;;;4.00;;
74269;SDS011;62754;48.252;11.654;2023-07-16T00:03:37;6.47;;;4.30;;
74269;SDS011;62754;48.252;11.654;2023-07-16T00:06:05;5.45;;;3.90;;
74269;SDS011;62754;48.252;11.654;2023-07-16T00:08:30;8.60;;;4.90;;
74269;SDS011;62754;48.252;11.654;2023-07-16T00:10:58;5.80;;;4.03;;
74269;SDS011;62754;48.252;11.654;2023-07-16T00:13:26;10.63;;;5.10;;
74269;SDS011;62754;48.252;11.654;2023-07-16T00:15:52;6.82;;;3.95;;
74269;SDS011;62754;48.252;11.654;2023-07-16T00:18:18;8.60;;;3.80;;
74269;SDS011;62754;48.252;11.654;2023-07-16T00:20:43;5.57;;;4.38;;
74269;SDS011;62754;48.252;11.654;2023-07-16T00:23:11;6.43;;;4.13;;
74269;SDS011;62754;48.252;11.654;2023-07-16T00:25:39;5.80;;;4.00;;
74269;SDS011;62754;48.252;11.654;2023-07-16T00:28:05;7.68;;;3.95;;
74269;SDS011;62754;48.252;11.654;2023-07-16T00:30:33;7.03;;;4.00;;
74269;SDS011;62754;48.252;11.654;2023-07-16T00:32:59;8.05;;;3.65;;
74269;SDS011;62754;48.252;11.654;2023-07-16T00:35:25;8.65;;;3.97;;
74269;SDS011;62754;48.252;11.654;2023-07-16T00:37:50;7.18;;;4.07;;
74269;SDS011;62754;48.252;11.654;2023-07-16T00:40:19;6.32;;;4.07;;
74269;SDS011;62754;48.252;11.654;2023-07-16T00:42:44;6.22;;;3.97;;
74269;SDS011;62754;48.252;11.654;2023-07-16T00:45:13;6.18;;;3.70;;
74269;SDS011;62754;48.252;11.654;2023-07-16T00:47:39;7.60;;;4.03;;
74269;SDS011;62754;48.252;11.654;2023-07-16T00:50:06;5.53;;;4.20;;
74269;SDS011;62754;48.252;11.654;2023-07-16T00:52:36;7.03;;;3.92;;
74269;SDS011;62754;48.252;11.654;2023-07-16T00:55:02;11.07;;;4.60;;
74269;SDS011;62754;48.252;11.654;2023-07-16T00:59:54;9.55;;;4.28;;
74269;SDS011;62754;48.252;11.654;2023-07-16T01:02:20;5.93;;;4.25;;
74269;SDS011;62754;48.252;11.654;2023-07-16T01:04:48;7.13;;;4.72;;
74269;SDS011;62754;48.252;11.654;2023-07-16T01:07:14;8.10;;;4.70;;
74269;SDS011;62754;48.252;11.654;2023-07-16T01:09:46;7.13;;;4.10;;
74269;SDS011;62754;48.252;11.654;2023-07-16T01:12:14;7.45;;;4.53;;
74269;SDS011;62754;48.252;11.654;2023-07-16T01:14:44;10.57;;;5.22;;
74269;SDS011;62754;48.252;11.654;2023-07-16T01:17:13;8.10;;;4.97;;
74269;SDS011;62754;48.252;11.654;2023-07-16T01:19:41;7.28;;;4.45;;
74269;SDS011;62754;48.252;11.654;2023-07-16T01:22:14;10.43;;;5.07;;
74269;SDS011;62754;48.252;11.654;2023-07-16T01:27:56;8.75;;;4.43;;
74269;SDS011;62754;48.252;11.654;2023-07-16T01:30:42;9.13;;;4.93;;
74269;SDS011;62754;48.252;11.654;2023-07-16T01:33:13;7.43;;;4.60;;
74269;SDS011;62754;48.252;11.654;2023-07-16T01:35:44;8.13;;;5.10;;
74269;SDS011;62754;48.252;11.654;2023-07-16T01:38:14;6.90;;;4.65;;
74269;SDS011;62754;48.252;11.654;2023-07-16T01:40:39;8.63;;;4.97;;
74269;SDS011;62754;48.252;11.654;2023-07-16T01:43:05;8.90;;;4.97;;
74269;SDS011;62754;48.252;11.654;2023-07-16T01:45:33;7.30;;;4.70;;
74269;SDS011;62754;48.252;11.654;2023-07-16T01:50:49;9.05;;;5.30;;
74269;SDS011;62754;48.252;11.654;2023-07-16T01:53:19;6.78;;;4.93;;
74269;SDS011;62754;48.252;11.654;2023-07-16T01:55:45;7.47;;;4.88;;
74269;SDS011;62754;48.252;11.654;2023-07-16T01:58:13;10.68;;;5.78;;
74269;SDS011;62754;48.252;11.654;2023-07-16T02:00:39;8.63;;;5.35;;
74269;SDS011;62754;48.252;11.654;2023-07-16T02:03:05;7.35;;;4.43;;
74269;SDS011;62754;48.252;11.654;2023-07-16T02:05:33;11.80;;;5.32;;
74269;SDS011;62754;48.252;11.654;2023-07-16T02:07:59;9.15;;;4.95;;
74269;SDS011;62754;48.252;11.654;2023-07-16T02:10:25;8.23;;;5.15;;
74269;SDS011;62754;48.252;11.654;2023-07-16T02:12:52;8.85;;;5.35;;
74269;SDS011;62754;48.252;11.654;2023-07-16T02:15:18;7.30;;;4.82;;
74269;SDS011;62754;48.252;11.654;2023-07-16T02:17:45;11.68;;;5.40;;
74269;SDS011;62754;48.252;11.654;2023-07-16T02:20:11;7.43;;;5.30;;
74269;SDS011;62754;48.252;11.654;2023-07-16T02:22:42;7.57;;;4.90;;
74269;SDS011;62754;48.252;11.654;2023-07-16T02:25:08;8.18;;;5.00;;
74269;SDS011;62754;48.252;11.654;2023-07-16T02:27:33;10.35;;;5.43;;
74269;SDS011;62754;48.252;11.654;2023-07-16T02:30:02;7.18;;;4.75;;
74269;SDS011;62754;48.252;11.654;2023-07-16T02:32:28;10.20;;;5.85;;
74269;SDS011;62754;48.252;11.654;2023-07-16T02:34:53;8.57;;;5.22;;
74269;SDS011;62754;48.252;11.654;2023-07-16T02:37:21;7.32;;;5.35;;
74269;SDS011;62754;48.252;11.654;2023-07-16T02:39:47;7.22;;;5.07;;
74269;SDS011;62754;48.252;11.654;2023-07-16T02:42:18;7.88;;;4.85;;
74269;SDS011;62754;48.252;11.654;2023-07-16T02:44:46;9.38;;;5.10;;
74269;SDS011;62754;48.252;11.654;2023-07-16T02:47:11;8.27;;;5.55;;
74269;SDS011;62754;48.252;11.654;2023-07-16T02:49:40;8.35;;;5.32;;
74269;SDS011;62754;48.252;11.654;2023-07-16T02:52:11;7.95;;;5.00;;
74269;SDS011;62754;48.252;11.654;2023-07-16T02:54:37;7.88;;;5.22;;
74269;SDS011;62754;48.252;11.654;2023-07-16T02:57:05;8.85;;;5.18;;
74269;SDS011;62754;48.252;11.654;2023-07-16T02:59:31;9.23;;;5.53;;
74269;SDS011;62754;48.252;11.654;2023-07-16T03:01:58;9.82;;;4.80;;
74269;SDS011;62754;48.252;11.654;2023-07-16T03:04:27;8.27;;;5.47;;
74269;SDS011;62754;48.252;11.654;2023-07-16T03:06:52;9.00;;;5.70;;
74269;SDS011;62754;48.252;11.654;2023-07-16T03:09:18;9.85;;;5.07;;
74269;SDS011;62754;48.252;11.654;2023-07-16T03:11:46;9.02;;;5.35;;
74269;SDS011;62754;48.252;11.654;2023-07-16T03:14:15;8.85;;;5.93;;
74269;SDS011;62754;48.252;11.654;2023-07-16T03:16:43;7.47;;;5.35;;
74269;SDS011;62754;48.252;11.654;2023-07-16T03:19:08;11.35;;;6.03;;
74269;SDS011;62754;48.252;11.654;2023-07-16T03:21:34;7.90;;;5.25;;
74269;SDS011;62754;48.252;11.654;2023-07-16T03:24:02;9.30;;;5.63;;
74269;SDS011;62754;48.252;11.654;2023-07-16T03:26:28;6.97;;;4.65;;
74269;SDS011;62754;48.252;11.654;2023-07-16T03:28:59;7.72;;;4.35;;
74269;SDS011;62754;48.252;11.654;2023-07-16T03:31:24;7.63;;;5.03;;
74269;SDS011;62754;48.252;11.654;2023-07-16T03:33:53;8.25;;;4.07;;
74269;SDS011;62754;48.252;11.654;2023-07-16T03:36:19;5.03;;;3.42;;
74269;SDS011;62754;48.252;11.654;2023-07-16T03:38:47;6.32;;;3.33;;
74269;SDS011;62754;48.252;11.654;2023-07-16T03:41:13;6.90;;;3.00;;
74269;SDS011;62754;48.252;11.654;2023-07-16T03:43:41;4.18;;;2.70;;
74269;SDS011;62754;48.252;11.654;2023-07-16T03:46:09;4.18;;;2.00;;
74269;SDS011;62754;48.252;11.654;2023-07-16T03:48:37;3.40;;;2.05;;
74269;SDS011;62754;48.252;11.654;2023-07-16T03:51:03;3.90;;;2.40;;
74269;SDS011;62754;48.252;11.654;2023-07-16T03:53:34;3.30;;;2.13;;
74269;SDS011;62754;48.252;11.654;2023-07-16T03:56:04;4.32;;;1.95;;
74269;SDS011;62754;48.252;11.654;2023-07-16T03:58:34;3.90;;;2.33;;
74269;SDS011;62754;48.252;11.654;2023-07-16T04:01:00;3.90;;;2.00;;
74269;SDS011;62754;48.252;11.654;2023-07-16T04:03:31;4.05;;;1.88;;
74269;SDS011;62754;48.252;11.654;2023-07-16T04:06:08;4.63;;;1.83;;
74269;SDS011;62754;48.252;11.654;2023-07-16T04:08:37;4.20;;;1.98;;
74269;SDS011;62754;48.252;11.654;2023-07-16T04:13:32;2.80;;;1.60;;
74269;SDS011;62754;48.252;11.654;2023-07-16T04:16:00;3.40;;;1.50;;
74269;SDS011;62754;48.252;11.654;2023-07-16T04:18:25;3.58;;;1.55;;
74269;SDS011;62754;48.252;11.654;2023-07-16T04:20:51;3.63;;;1.38;;
74269;SDS011;62754;48.252;11.654;2023-07-16T04:23:20;4.00;;;1.60;;
74269;SDS011;62754;48.252;11.654;2023-07-16T04:25:51;4.13;;;1.58;;
74269;SDS011;62754;48.252;11.654;2023-07-16T04:28:17;4.78;;;1.90;;
74269;SDS011;62754;48.252;11.654;2023-07-16T04:30:43;3.03;;;1.42;;
74269;SDS011;62754;48.252;11.654;2023-07-16T04:33:11;3.25;;;1.80;;
74269;SDS011;62754;48.252;11.654;2023-07-16T04:35:36;4.38;;;1.60;;
74269;SDS011;62754;48.252;11.654;2023-07-16T04:38:02;3.20;;;1.30;;
74269;SDS011;62754;48.252;11.654;2023-07-16T04:40:30;3.45;;;1.50;;
74269;SDS011;62754;48.252;11.654;2023-07-16T04:42:59;3.28;;;1.30;;
74269;SDS011;62754;48.252;11.654;2023-07-16T04:45:25;3.50;;;1.35;;
74269;SDS011;62754;48.252;11.654;2023-07-16T04:47:50;3.28;;;1.45;;
74269;SDS011;62754;48.252;11.654;2023-07-16T04:50:16;3.90;;;1.55;;
74269;SDS011;62754;48.252;11.654;2023-07-16T04:52:42;2.90;;;1.30;;
74269;SDS011;62754;48.252;11.654;2023-07-16T04:55:10;3.67;;;1.58;;
74269;SDS011;62754;48.252;11.654;2023-07-16T04:57:36;3.67;;;1.50;;
74269;SDS011;62754;48.252;11.654;2023-07-16T05:00:05;4.22;;;1.52;;
74269;SDS011;62754;48.252;11.654;2023-07-16T05:02:33;2.90;;;1.58;;
74269;SDS011;62754;48.252;11.654;2023-07-16T05:04:59;4.95;;;1.63;;
74269;SDS011;62754;48.252;11.654;2023-07-16T05:07:27;3.17;;;1.45;;
74269;SDS011;62754;48.252;11.654;2023-07-16T05:09:55;2.75;;;1.20;;
74269;SDS011;62754;48.252;11.654;2023-07-16T05:12:23;3.88;;;1.45;;
74269;SDS011;62754;48.252;11.654;2023-07-16T05:14:49;2.75;;;1.23;;
74269;SDS011;62754;48.252;11.654;2023-07-16T05:17:18;4.93;;;1.60;;
74269;SDS011;62754;48.252;11.654;2023-07-16T05:19:44;8.30;;;1.63;;
74269;SDS011;62754;48.252;11.654;2023-07-16T05:22:09;5.07;;;1.63;;
74269;SDS011;62754;48.252;11.654;2023-07-16T05:24:38;3.47;;;1.73;;
74269;SDS011;62754;48.252;11.654;2023-07-16T05:27:04;3.67;;;1.60;;
74269;SDS011;62754;48.252;11.654;2023-07-16T05:29:30;3.38;;;1.67;;
74269;SDS011;62754;48.252;11.654;2023-07-16T05:32:00;3.85;;;1.52;;
74269;SDS011;62754;48.252;11.654;2023-07-16T05:34:26;3.47;;;1.67;;
74269;SDS011;62754;48.252;11.654;2023-07-16T05:36:52;3.25;;;1.42;;
74269;SDS011;62754;48.252;11.654;2023-07-16T05:39:21;3.85;;;1.73;;
74269;SDS011;62754;48.252;11.654;2023-07-16T05:41:49;3.05;;;1.52;;
74269;SDS011;62754;48.252;11.654;2023-07-16T05:44:15;3.30;;;1.58;;
74269;SDS011;62754;48.252;11.654;2023-07-16T05:46:43;3.55;;;1.05;;
74269;SDS011;62754;48.252;11.654;2023-07-16T05:49:11;2.58;;;1.23;;
74269;SDS011;62754;48.252;11.654;2023-07-16T05:51:37;3.88;;;1.73;;
74269;SDS011;62754;48.252;11.654;2023-07-16T05:54:05;5.13;;;1.40;;
74269;SDS011;62754;48.252;11.654;2023-07-16T05:56:30;3.92;;;1.38;;
74269;SDS011;62754;48.252;11.654;2023-07-16T05:58:56;3.25;;;1.40;;
74269;SDS011;62754;48.252;11.654;2023-07-16T06:01:25;3.78;;;1.33;;
74269;SDS011;62754;48.252;11.654;2023-07-16T06:03:51;3.50;;;1.73;;
74269;SDS011;62754;48.252;11.654;2023-07-16T06:06:16;4.47;;;1.50;;
74269;SDS011;62754;48.252;11.654;2023-07-16T06:08:47;5.18;;;1.55;;
74269;SDS011;62754;48.252;11.654;2023-07-16T06:11:14;4.88;;;1.27;;
74269;SDS011;62754;48.252;11.654;2023-07-16T06:13:42;3.22;;;1.23;;
74269;SDS011;62754;48.252;11.654;2023-07-16T06:16:11;2.53;;;1.20;;
74269;SDS011;62754;48.252;11.654;2023-07-16T06:18:38;2.58;;;1.30;;
74269;SDS011;62754;48.252;11.654;2023-07-16T06:21:04;2.75;;;1.60;;
74269;SDS011;62754;48.252;11.654;2023-07-16T06:23:32;2.95;;;1.50;;
74269;SDS011;62754;48.252;11.654;2023-07-16T06:25:58;2.85;;;1.40;;
74269;SDS011;62754;48.252;11.654;2023-07-16T06:28:26;3.65;;;1.58;;
74269;SDS011;62754;48.252;11.654;2023-07-16T06:30:54;2.47;;;1.10;;
74269;SDS011;62754;48.252;11.654;2023-07-16T06:33:20;2.90;;;1.35;;
74269;SDS011;62754;48.252;11.654;2023-07-16T06:35:48;4.38;;;1.25;;
74269;SDS011;62754;48.252;11.654;2023-07-16T06:38:14;4.70;;;1.80;;
74269;SDS011;62754;48.252;11.654;2023-07-16T06:40:51;3.13;;;1.35;;
74269;SDS011;62754;48.252;11.654;2023-07-16T06:43:17;5.13;;;1.13;;
74269;SDS011;62754;48.252;11.654;2023-07-16T06:45:43;2.67;;;1.45;;
74269;SDS011;62754;48.252;11.654;2023-07-16T06:48:09;2.67;;;1.52;;
74269;SDS011;62754;48.252;11.654;2023-07-16T06:50:35;5.07;;;1.60;;
74269;SDS011;62754;48.252;11.654;2023-07-16T06:53:05;2.40;;;1.35;;
74269;SDS011;62754;48.252;11.654;2023-07-16T06:55:36;4.60;;;1.75;;
74269;SDS011;62754;48.252;11.654;2023-07-16T06:58:04;2.78;;;1.50;;
74269;SDS011;62754;48.252;11.654;2023-07-16T07:00:36;3.83;;;1.77;;
74269;SDS011;62754;48.252;11.654;2023-07-16T07:03:02;3.58;;;1.92;;
74269;SDS011;62754;48.252;11.654;2023-07-16T07:05:27;3.10;;;1.80;;
74269;SDS011;62754;48.252;11.654;2023-07-16T07:07:58;3.45;;;1.70;;
74269;SDS011;62754;48.252;11.654;2023-07-16T07:10:24;5.03;;;2.13;;
74269;SDS011;62754;48.252;11.654;2023-07-16T07:12:49;3.33;;;2.00;;
74269;SDS011;62754;48.252;11.654;2023-07-16T07:15:17;4.18;;;1.85;;
74269;SDS011;62754;48.252;11.654;2023-07-16T07:17:43;4.10;;;1.90;;
74269;SDS011;62754;48.252;11.654;2023-07-16T07:20:12;3.53;;;1.88;;
74269;SDS011;62754;48.252;11.654;2023-07-16T07:22:40;3.45;;;1.85;;
74269;SDS011;62754;48.252;11.654;2023-07-16T07:25:06;2.50;;;1.40;;
74269;SDS011;62754;48.252;11.654;2023-07-16T07:27:35;3.60;;;1.55;;
74269;SDS011;62754;48.252;11.654;2023-07-16T07:30:05;4.32;;;1.70;;
74269;SDS011;62754;48.252;11.654;2023-07-16T07:32:32;3.47;;;1.60;;
74269;SDS011;62754;48.252;11.654;2023-07-16T07:34:58;4.13;;;1.90;;
74269;SDS011;62754;48.252;11.654;2023-07-16T07:37:26;3.45;;;1.60;;
74269;SDS011;62754;48.252;11.654;2023-07-16T07:39:52;3.88;;;1.80;;
74269;SDS011;62754;48.252;11.654;2023-07-16T07:42:18;4.65;;;1.80;;
74269;SDS011;62754;48.252;11.654;2023-07-16T07:44:45;5.55;;;2.00;;
74269;SDS011;62754;48.252;11.654;2023-07-16T07:47:13;3.75;;;2.08;;
74269;SDS011;62754;48.252;11.654;2023-07-16T07:49:39;2.92;;;1.88;;
74269;SDS011;62754;48.252;11.654;2023-07-16T07:52:07;3.08;;;1.75;;
74269;SDS011;62754;48.252;11.654;2023-07-16T07:54:33;3.30;;;1.80;;
74269;SDS011;62754;48.252;11.654;2023-07-16T07:57:02;3.88;;;1.73;;
74269;SDS011;62754;48.252;11.654;2023-07-16T07:59:31;3.83;;;1.73;;
74269;SDS011;62754;48.252;11.654;2023-07-16T08:02:02;4.15;;;1.70;;
74269;SDS011;62754;48.252;11.654;2023-07-16T08:04:30;3.85;;;1.77;;
74269;SDS011;62754;48.252;11.654;2023-07-16T08:06:56;4.43;;;1.80;;
74269;SDS011;62754;48.252;11.654;2023-07-16T08:09:27;3.25;;;1.83;;
74269;SDS011;62754;48.252;11.654;2023-07-16T08:11:58;3.00;;;1.80;;
74269;SDS011;62754;48.252;11.654;2023-07-16T08:14:23;3.10;;;1.58;;
74269;SDS011;62754;48.252;11.654;2023-07-16T08:16:54;3.85;;;1.40;;
74269;SDS011;62754;48.252;11.654;2023-07-16T08:19:19;4.20;;;2.10;;
74269;SDS011;62754;48.252;11.654;2023-07-16T08:21:45;3.38;;;1.50;;
74269;SDS011;62754;48.252;11.654;2023-07-16T08:24:14;3.53;;;1.88;;
74269;SDS011;62754;48.252;11.654;2023-07-16T08:26:42;2.67;;;1.40;;
74269;SDS011;62754;48.252;11.654;2023-07-16T08:29:08;2.53;;;1.27;;
74269;SDS011;62754;48.252;11.654;2023-07-16T08:31:34;2.95;;;1.25;;
74269;SDS011;62754;48.252;11.654;2023-07-16T08:33:59;2.83;;;1.30;;
74269;SDS011;62754;48.252;11.654;2023-07-16T08:36:28;2.63;;;1.20;;
74269;SDS011;62754;48.252;11.654;2023-07-16T08:38:53;3.63;;;1.52;;
74269;SDS011;62754;48.252;11.654;2023-07-16T08:41:21;3.00;;;1.48;;
74269;SDS011;62754;48.252;11.654;2023-07-16T08:43:47;2.45;;;1.40;;
74269;SDS011;62754;48.252;11.654;2023-07-16T08:46:13;2.75;;;1.20;;
74269;SDS011;62754;48.252;11.654;2023-07-16T08:48:43;2.78;;;1.38;;
74269;SDS011;62754;48.252;11.654;2023-07-16T08:51:10;2.65;;;1.23;;
74269;SDS011;62754;48.252;11.654;2023-07-16T08:53:42;2.58;;;1.02;;
74269;SDS011;62754;48.252;11.654;2023-07-16T08:56:13;2.75;;;1.40;;
74269;SDS011;62754;48.252;11.654;2023-07-16T08:58:38;3.08;;;1.50;;
74269;SDS011;62754;48.252;11.654;2023-07-16T09:01:10;3.13;;;1.10;;
74269;SDS011;62754;48.252;11.654;2023-07-16T09:03:39;2.72;;;1.30;;
74269;SDS011;62754;48.252;11.654;2023-07-16T09:06:07;2.60;;;1.33;;
74269;SDS011;62754;48.252;11.654;2023-07-16T09:08:36;2.50;;;1.55;;
74269;SDS011;62754;48.252;11.654;2023-07-16T09:11:04;2.65;;;1.42;;
74269;SDS011;62754;48.252;11.654;2023-07-16T09:13:30;2.50;;;1.40;;
74269;SDS011;62754;48.252;11.654;2023-07-16T09:15:56;2.42;;;1.27;;
74269;SDS011;62754;48.252;11.654;2023-07-16T09:18:24;2.30;;;1.17;;
74269;SDS011;62754;48.252;11.654;2023-07-16T09:23:23;2.70;;;1.33;;
74269;SDS011;62754;48.252;11.654;2023-07-16T09:25:50;3.28;;;1.40;;
74269;SDS011;62754;48.252;11.654;2023-07-16T09:30:47;2.38;;;1.33;;
74269;SDS011;62754;48.252;11.654;2023-07-16T09:33:16;3.35;;;1.10;;
74269;SDS011;62754;48.252;11.654;2023-07-16T09:35:43;2.10;;;1.20;;
74269;SDS011;62754;48.252;11.654;2023-07-16T09:38:10;2.95;;;1.27;;
74269;SDS011;62754;48.252;11.654;2023-07-16T09:40:38;1.83;;;1.15;;
74269;SDS011;62754;48.252;11.654;2023-07-16T09:43:05;3.33;;;1.60;;
74269;SDS011;62754;48.252;11.654;2023-07-16T09:45:32;2.88;;;1.40;;
74269;SDS011;62754;48.252;11.654;2023-07-16T09:50:31;2.85;;;1.42;;
74269;SDS011;62754;48.252;11.654;2023-07-16T09:53:03;2.40;;;1.23;;
74269;SDS011;62754;48.252;11.654;2023-07-16T09:55:33;2.83;;;1.25;;
74269;SDS011;62754;48.252;11.654;2023-07-16T09:58:04;2.58;;;1.25;;
74269;SDS011;62754;48.252;11.654;2023-07-16T10:00:33;2.30;;;1.17;;
74269;SDS011;62754;48.252;11.654;2023-07-16T10:03:01;2.25;;;1.08;;
74269;SDS011;62754;48.252;11.654;2023-07-16T10:07:59;2.05;;;1.20;;
74269;SDS011;62754;48.252;11.654;2023-07-16T10:10:26;2.80;;;1.30;;
74269;SDS011;62754;48.252;11.654;2023-07-16T10:13:03;2.83;;;1.30;;
74269;SDS011;62754;48.252;11.654;2023-07-16T10:15:32;2.85;;;1.35;;
74269;SDS011;62754;48.252;11.654;2023-07-16T10:17:58;2.35;;;1.27;;
74269;SDS011;62754;48.252;11.654;2023-07-16T10:20:35;2.92;;;1.48;;
74269;SDS011;62754;48.252;11.654;2023-07-16T10:23:15;2.30;;;1.30;;
74269;SDS011;62754;48.252;11.654;2023-07-16T10:26:03;3.05;;;1.30;;
74269;SDS011;62754;48.252;11.654;2023-07-16T10:31:01;2.05;;;1.20;;
74269;SDS011;62754;48.252;11.654;2023-07-16T10:35:53;2.53;;;1.40;;
74269;SDS011;62754;48.252;11.654;2023-07-16T10:38:20;2.50;;;1.35;;
74269;SDS011;62754;48.252;11.654;2023-07-16T10:40:49;2.05;;;1.08;;
74269;SDS011;62754;48.252;11.654;2023-07-16T10:43:17;2.65;;;1.05;;
74269;SDS011;62754;48.252;11.654;2023-07-16T10:45:45;2.55;;;1.25;;
74269;SDS011;62754;48.252;11.654;2023-07-16T10:48:11;2.60;;;1.30;;
74269;SDS011;62754;48.252;11.654;2023-07-16T10:50:36;2.53;;;1.30;;
74269;SDS011;62754;48.252;11.654;2023-07-16T10:53:02;1.98;;;1.02;;
74269;SDS011;62754;48.252;11.654;2023-07-16T10:55:28;3.08;;;1.30;;
74269;SDS011;62754;48.252;11.654;2023-07-16T10:57:55;2.20;;;1.05;;
74269;SDS011;62754;48.252;11.654;2023-07-16T11:00:21;2.47;;;1.30;;
74269;SDS011;62754;48.252;11.654;2023-07-16T11:02:50;2.35;;;1.20;;
74269;SDS011;62754;48.252;11.654;2023-07-16T11:05:17;2.38;;;1.08;;
74269;SDS011;62754;48.252;11.654;2023-07-16T11:07:44;2.80;;;1.40;;
74269;SDS011;62754;48.252;11.654;2023-07-16T11:10:14;2.10;;;1.10;;
74269;SDS011;62754;48.252;11.654;2023-07-16T11:12:41;2.33;;;1.08;;
74269;SDS011;62754;48.252;11.654;2023-07-16T11:15:07;1.92;;;0.93;;
74269;SDS011;62754;48.252;11.654;2023-07-16T11:17:39;5.78;;;1.30;;
74269;SDS011;62754;48.252;11.654;2023-07-16T11:20:08;2.25;;;1.20;;
74269;SDS011;62754;48.252;11.654;2023-07-16T11:22:36;2.75;;;1.33;;
74269;SDS011;62754;48.252;11.654;2023-07-16T11:25:10;2.05;;;1.13;;
74269;SDS011;62754;48.252;11.654;2023-07-16T11:27:40;2.22;;;1.20;;
74269;SDS011;62754;48.252;11.654;2023-07-16T11:30:09;2.53;;;1.10;;
74269;SDS011;62754;48.252;11.654;2023-07-16T11:32:36;2.00;;;1.20;;
74269;SDS011;62754;48.252;11.654;2023-07-16T11:35:06;2.30;;;1.45;;
74269;SDS011;62754;48.252;11.654;2023-07-16T11:37:40;2.50;;;1.27;;
74269;SDS011;62754;48.252;11.654;2023-07-16T11:40:09;1.98;;;1.20;;
74269;SDS011;62754;48.252;11.654;2023-07-16T11:42:39;2.50;;;1.40;;
74269;SDS011;62754;48.252;11.654;2023-07-16T11:45:19;2.00;;;1.00;;
74269;SDS011;62754;48.252;11.654;2023-07-16T11:47:49;2.08;;;1.23;;
74269;SDS011;62754;48.252;11.654;2023-07-16T11:50:17;3.20;;;1.23;;
74269;SDS011;62754;48.252;11.654;2023-07-16T11:52:51;2.22;;;1.20;;
74269;SDS011;62754;48.252;11.654;2023-07-16T11:55:22;2.20;;;1.20;;
74269;SDS011;62754;48.252;11.654;2023-07-16T11:57:50;3.15;;;1.27;;
74269;SDS011;62754;48.252;11.654;2023-07-16T12:00:16;2.33;;;1.45;;
74269;SDS011;62754;48.252;11.654;2023-07-16T12:02:42;2.30;;;1.10;;
74269;SDS011;62754;48.252;11.654;2023-07-16T12:05:13;2.58;;;1.42;;
74269;SDS011;62754;48.252;11.654;2023-07-16T12:07:39;3.65;;;1.30;;
74269;SDS011;62754;48.252;11.654;2023-07-16T12:10:05;3.30;;;1.42;;
74269;SDS011;62754;48.252;11.654;2023-07-16T12:12:32;4.15;;;1.48;;
74269;SDS011;62754;48.252;11.654;2023-07-16T12:15:00;2.75;;;1.25;;
74269;SDS011;62754;48.252;11.654;2023-07-16T12:17:30;2.20;;;1.15;;
74269;SDS011;62754;48.252;11.654;2023-07-16T12:19:56;2.10;;;1.17;;
74269;SDS011;62754;48.252;11.654;2023-07-16T12:22:24;2.30;;;1.23;;
74269;SDS011;62754;48.252;11.654;2023-07-16T12:24:50;3.50;;;1.40;;
74269;SDS011;62754;48.252;11.654;2023-07-16T12:27:16;2.25;;;1.20;;
74269;SDS011;62754;48.252;11.654;2023-07-16T12:29:46;3.00;;;1.40;;
74269;SDS011;62754;48.252;11.654;2023-07-16T12:32:15;3.60;;;1.60;;
74269;SDS011;62754;48.252;11.654;2023-07-16T12:37:16;2.90;;;1.20;;
74269;SDS011;62754;48.252;11.654;2023-07-16T12:39:44;3.35;;;1.45;;
74269;SDS011;62754;48.252;11.654;2023-07-16T12:42:12;2.53;;;1.33;;
74269;SDS011;62754;48.252;11.654;2023-07-16T12:44:38;3.40;;;1.80;;
74269;SDS011;62754;48.252;11.654;2023-07-16T12:47:06;2.80;;;1.23;;
74269;SDS011;62754;48.252;11.654;2023-07-16T12:49:31;4.25;;;1.60;;
74269;SDS011;62754;48.252;11.654;2023-07-16T12:51:57;2.60;;;1.35;;
74269;SDS011;62754;48.252;11.654;2023-07-16T12:54:23;2.42;;;1.35;;
74269;SDS011;62754;48.252;11.654;2023-07-16T12:56:49;2.10;;;1.35;;
74269;SDS011;62754;48.252;11.654;2023-07-16T12:59:14;3.85;;;1.40;;
74269;SDS011;62754;48.252;11.654;2023-07-16T13:01:40;3.65;;;1.60;;
74269;SDS011;62754;48.252;11.654;2023-07-16T13:04:09;2.75;;;1.63;;
74269;SDS011;62754;48.252;11.654;2023-07-16T13:06:37;3.88;;;1.42;;
74269;SDS011;62754;48.252;11.654;2023-07-16T13:09:03;2.60;;;1.70;;
74269;SDS011;62754;48.252;11.654;2023-07-16T13:11:31;2.72;;;1.60;;
74269;SDS011;62754;48.252;11.654;2023-07-16T13:13:57;3.15;;;1.70;;
74269;SDS011;62754;48.252;11.654;2023-07-16T13:16:22;2.67;;;1.63;;
74269;SDS011;62754;48.252;11.654;2023-07-16T13:18:48;2.53;;;1.80;;
74269;SDS011;62754;48.252;11.654;2023-07-16T13:21:14;3.63;;;1.73;;
74269;SDS011;62754;48.252;11.654;2023-07-16T13:23:40;3.70;;;1.50;;
74269;SDS011;62754;48.252;11.654;2023-07-16T13:26:05;3.67;;;1.63;;
74269;SDS011;62754;48.252;11.654;2023-07-16T13:28:31;3.55;;;1.50;;
74269;SDS011;62754;48.252;11.654;2023-07-16T13:30:59;3.15;;;1.85;;
74269;SDS011;62754;48.252;11.654;2023-07-16T13:33:25;2.47;;;1.30;;
74269;SDS011;62754;48.252;11.654;2023-07-16T13:35:53;4.13;;;1.70;;
74269;SDS011;62754;48.252;11.654;2023-07-16T13:38:21;3.28;;;1.67;;
74269;SDS011;62754;48.252;11.654;2023-07-16T13:40:49;4.53;;;1.85;;
74269;SDS011;62754;48.252;11.654;2023-07-16T13:43:17;2.72;;;1.60;;
74269;SDS011;62754;48.252;11.654;2023-07-16T13:45:43;5.32;;;1.90;;
74269;SDS011;62754;48.252;11.654;2023-07-16T13:48:09;2.92;;;1.50;;
74269;SDS011;62754;48.252;11.654;2023-07-16T13:50:34;3.85;;;1.42;;
74269;SDS011;62754;48.252;11.654;2023-07-16T13:53:00;2.95;;;1.67;;
74269;SDS011;62754;48.252;11.654;2023-07-16T13:55:26;3.92;;;1.80;;
74269;SDS011;62754;48.252;11.654;2023-07-16T13:57:55;3.20;;;2.05;;
74269;SDS011;62754;48.252;11.654;2023-07-16T14:00:23;3.38;;;1.63;;
74269;SDS011;62754;48.252;11.654;2023-07-16T14:02:53;3.40;;;1.70;;
74269;SDS011;62754;48.252;11.654;2023-07-16T14:05:22;4.45;;;1.60;;
74269;SDS011;62754;48.252;11.654;2023-07-16T14:07:47;3.03;;;1.42;;
74269;SDS011;62754;48.252;11.654;2023-07-16T14:10:15;2.97;;;1.67;;
74269;SDS011;62754;48.252;11.654;2023-07-16T14:12:45;3.35;;;1.65;;
74269;SDS011;62754;48.252;11.654;2023-07-16T14:15:11;2.85;;;1.52;;
74269;SDS011;62754;48.252;11.654;2023-07-16T14:17:37;3.45;;;1.50;;
74269;SDS011;62754;48.252;11.654;2023-07-16T14:20:03;3.63;;;1.70;;
74269;SDS011;62754;48.252;11.654;2023-07-16T14:22:31;5.03;;;1.80;;
74269;SDS011;62754;48.252;11.654;2023-07-16T14:25:01;3.33;;;1.70;;
74269;SDS011;62754;48.252;11.654;2023-07-16T14:27:32;3.00;;;1.77;;
74269;SDS011;62754;48.252;11.654;2023-07-16T14:30:00;2.63;;;1.80;;
74269;SDS011;62754;48.252;11.654;2023-07-16T14:32:28;3.15;;;1.70;;
74269;SDS011;62754;48.252;11.654;2023-07-16T14:34:54;3.20;;;1.70;;
74269;SDS011;62754;48.252;11.654;2023-07-16T14:37:22;4.18;;;1.98;;
74269;SDS011;62754;48.252;11.654;2023-07-16T14:39:50;3.72;;;1.83;;
74269;SDS011;62754;48.252;11.654;2023-07-16T14:42:18;3.70;;;2.47;;
74269;SDS011;62754;48.252;11.654;2023-07-16T14:44:43;2.90;;;1.77;;
74269;SDS011;62754;48.252;11.654;2023-07-16T14:47:11;2.80;;;1.83;;
74269;SDS011;62754;48.252;11.654;2023-07-16T14:49:37;3.15;;;1.67;;
74269;SDS011;62754;48.252;11.654;2023-07-16T14:52:08;2.75;;;1.55;;
74269;SDS011;62754;48.252;11.654;2023-07-16T14:54:34;2.95;;;1.70;;
74269;SDS011;62754;48.252;11.654;2023-07-16T14:57:02;3.65;;;1.80;;
74269;SDS011;62754;48.252;11.654;2023-07-16T14:59:28;3.05;;;1.67;;
74269;SDS011;62754;48.252;11.654;2023-07-16T15:01:56;3.00;;;1.88;;
74269;SDS011;62754;48.252;11.654;2023-07-16T15:04:22;2.97;;;1.73;;